Latest Weather Observations for Batchelor

IDD60901

Issued at 4:21 pm CST Wednesday 24 August 2016 (issued every 10 minutes, with the page automatically refreshed every 10 minutes)

About weather observations | Map of Darwin area stations | Latest observations for Darwin area | Other Formats
Station Details ID: 014272 Name: BATCHELOR AIRPORT Lat: -13.05 Lon: 131.03 Height: 104.0 m
Data from the previous 72 hours. | See also: Recent months at Batchelor
Date/Time
CST
Temp
°C
App
Temp
°C
Dew
Point
°C
Rel
Hum
%
Delta-T
°C
Wind Press
QNH
hPa
Press
MSL
hPa
Rain since
9am
mm
Dir  Spd
km/h
Gust
km/h
Spd
kts
Gust
kts
24/04:00pm 33.5 33.2 14.5 31 11.7 W 9 20 5 11 1007.2 1006.7 0.0
24/03:30pm 33.3 32.8 14.8 32 11.5 SSW 11 17 6 9 1007.3 1006.8 0.0
24/03:00pm 32.4 32.1 14.5 33 11.0 W 9 19 5 10 1007.7 1007.2 0.0
24/02:30pm 31.8 31.3 14.9 36 10.4 SW 11 17 6 9 1008.0 1007.5 0.0
24/02:00pm 34.2 33.6 14.7 31 12.1 W 11 20 6 11 1008.4 1007.9 0.0
24/01:30pm 34.0 33.7 14.5 31 12.1 NW 9 20 5 11 1008.9 1008.4 0.0
24/01:00pm 33.0 31.7 13.6 31 11.8 NW 13 22 7 12 1009.4 1008.9 0.0
24/12:30pm 32.2 31.0 13.9 33 11.2 WNW 13 20 7 11 1010.1 1009.6 0.0
24/12:00pm 32.2 31.6 13.4 32 11.4 WNW 9 19 5 10 1010.6 1010.1 0.0
24/11:30am 31.6 31.6 14.3 35 10.6 W 7 17 4 9 1011.3 1010.8 0.0
24/11:00am 30.4 28.5 11.9 32 10.8 W 13 19 7 10 1011.8 1011.3 0.0
24/10:30am 29.2 29.2 15.3 42 8.6 W 9 15 5 8 1012.2 1011.7 0.0
24/10:00am 29.0 29.3 15.9 45 8.1 W 9 19 5 10 1012.4 1011.9 0.0
24/09:30am 27.9 29.4 17.7 53 6.5 WSW 6 9 3 5 1012.4 1011.9 0.0
24/09:00am 25.9 27.6 18.1 62 4.9 WSW 6 13 3 7 1012.2 1011.7 0.0
24/08:30am 24.7 27.9 19.8 74 3.2 W 2 4 1 2 1012.0 1011.5 0.0
24/08:00am 23.2 27.1 20.3 84 1.9 CALM 0 0 0 0 1011.6 1011.1 0.0
24/07:30am 20.4 23.6 18.9 91 0.9 CALM 0 0 0 0 1011.4 1010.9 0.0
24/07:00am 19.8 22.7 18.1 90 1.1 CALM 0 0 0 0 1011.0 1010.5 0.0
24/06:30am 20.7 23.9 18.8 89 1.2 CALM 0 0 0 0 1010.6 1010.1 0.0
24/06:00am 21.1 24.2 19.4 90 1.1 W 2 4 1 2 1010.5 1010.0 0.0
24/05:30am 21.1 24.7 19.7 92 0.9 CALM 0 0 0 0 1010.3 1009.8 0.0
24/05:00am 20.6 24.0 19.4 93 0.8 CALM 0 0 0 0 1010.3 1009.8 0.0
24/04:30am 20.4 23.1 19.4 94 0.6 W 4 4 2 2 1010.0 1009.5 0.0
24/04:00am 20.3 23.6 19.0 92 0.8 CALM 0 0 0 0 1009.8 1009.3 0.0
24/03:30am 20.5 23.8 19.0 91 0.9 CALM 0 2 0 1 1009.8 1009.3 0.0
24/03:00am 20.8 23.7 19.1 90 1.1 W 2 4 1 2 1009.8 1009.3 0.0
24/02:30am 21.1 24.7 19.7 92 0.9 CALM 0 4 0 2 1009.9 1009.4 0.0
24/02:00am 21.1 24.2 19.4 90 1.1 W 2 4 1 2 1009.9 1009.4 0.0
24/01:30am 21.2 24.2 19.3 89 1.2 W 2 4 1 2 1010.0 1009.5 0.0
24/01:00am 21.5 24.4 19.1 86 1.5 W 2 2 1 1 1010.0 1009.5 0.0
24/12:30am 22.4 25.2 19.6 84 1.8 W 4 4 2 2 1010.3 1009.8 0.0
24/12:00am 22.7 25.5 19.7 83 1.9 W 4 6 2 3 1010.3 1009.8 0.0
 
Date/Time
CST
Temp
°C
App
Temp
°C
Dew
Point
°C
Rel
Hum
%
Delta-T
°C
Wind Press
QNH
hPa
Press
MSL
hPa
Rain since
9am
mm
Dir  Spd
km/h
Gust
km/h
Spd
kts
Gust
kts
23/11:30pm 23.5 26.4 19.8 80 2.4 W 4 6 2 3 1010.2 1009.7 0.0
23/11:00pm 23.5 26.6 19.6 79 2.5 WSW 2 6 1 3 1010.2 1009.7 0.0
23/10:30pm 23.9 26.7 19.6 77 2.8 WSW 4 6 2 3 1010.2 1009.7 0.0
23/10:00pm 24.4 27.1 19.5 74 3.2 WSW 4 7 2 4 1010.0 1009.5 0.0
23/09:30pm 25.0 27.2 19.6 72 3.5 WNW 7 11 4 6 1010.0 1009.5 0.0
23/09:00pm 25.4 27.5 19.3 69 3.9 WNW 7 13 4 7 1009.8 1009.3 0.0
23/08:30pm 25.9 27.4 18.8 65 4.6 W 9 15 5 8 1009.6 1009.1 0.0
23/08:00pm 26.6 27.8 17.4 57 5.8 W 7 13 4 7 1009.2 1008.7 0.0
23/07:30pm 27.3 27.7 17.2 54 6.4 WNW 11 17 6 9 1008.8 1008.3 0.0
23/07:00pm 27.5 27.4 16.1 49 7.1 W 11 20 6 11 1008.3 1007.8 0.0
23/06:30pm 28.2 28.0 15.8 47 7.7 WNW 11 20 6 11 1007.9 1007.4 0.0
23/06:00pm 29.5 29.3 16.7 46 8.1 WNW 13 22 7 12 1007.5 1007.0 0.0
23/05:30pm 30.3 29.1 17.0 44 8.4 NW 19 26 10 14 1007.3 1006.8 0.0
23/05:00pm 30.8 29.5 16.8 43 8.9 WNW 19 28 10 15 1007.1 1006.5 0.0
23/04:30pm 31.6 30.2 15.5 37 10.0 NW 17 26 9 14 1006.9 1006.3 0.0
23/04:00pm 31.7 29.9 15.6 37 10.0 WNW 19 33 10 18 1006.7 1006.1 0.0
23/03:30pm 31.0 29.2 15.4 38 9.7 WNW 19 30 10 16 1006.9 1006.3 0.0
23/03:00pm 32.4 31.9 17.8 41 9.4 NNW 17 32 9 17 1007.1 1006.5 0.0
23/02:30pm 30.6 29.8 17.0 44 8.6 NW 17 24 9 13 1007.5 1007.0 0.0
23/02:00pm 30.6 31.2 17.7 46 8.3 N 11 20 6 11 1007.8 1007.3 0.0
23/01:30pm 31.5 31.9 18.1 44 8.7 NW 13 22 7 12 1008.4 1007.9 0.0
23/01:00pm 29.9 30.4 17.4 47 8.0 NNW 11 19 6 10 1008.9 1008.4 0.0
23/12:30pm 31.2 31.7 17.5 44 8.8 NW 11 28 6 15 1009.3 1008.8 0.0
23/12:00pm 30.8 30.8 17.1 43 8.7 NW 13 22 7 12 1010.0 1009.5 0.0
23/11:30am 28.8 29.9 18.0 52 6.9 WNW 9 19 5 10 1010.6 1010.1 0.0
23/11:00am 28.0 29.3 19.2 58 5.7 WNW 11 17 6 9 1011.1 1010.6 0.0
23/10:30am 28.2 29.5 19.2 58 5.8 NNW 11 19 6 10 1011.3 1010.8 0.0
23/10:00am 26.8 28.7 19.7 65 4.6 NW 9 15 5 8 1011.6 1011.1 0.0
23/09:30am 26.7 28.2 19.8 66 4.5 NNW 11 17 6 9 1011.6 1011.1 0.0
23/09:00am 25.6 28.5 20.6 74 3.3 WNW 6 9 3 5 1011.6 1011.1 0.0
23/08:30am 23.8 28.3 21.5 87 1.5 CALM 0 0 0 0 1011.4 1010.9 0.0
23/08:00am 21.6 25.7 20.8 95 0.5 CALM 0 0 0 0 1011.1 1010.6 0.0
23/07:30am 20.4 23.9 19.6 95 0.5 CALM 0 0 0 0 1010.8 1010.3 0.0
23/07:00am 19.6 22.8 18.8 95 0.5 CALM 0 0 0 0 1010.2 1009.7 0.0
23/06:30am 20.1 23.5 19.3 95 0.5 CALM 0 0 0 0 1009.9 1009.4 0.0
23/06:00am 20.2 23.6 19.4 95 0.5 CALM 0 0 0 0 1009.7 1009.2 0.0
23/05:30am 20.0 23.3 19.0 94 0.6 CALM 0 0 0 0 1009.7 1009.2 0.0
23/05:00am 20.3 23.6 19.0 92 0.8 CALM 0 0 0 0 1009.6 1009.1 0.0
23/04:30am 21.2 24.9 20.0 93 0.8 CALM 0 0 0 0 1009.4 1008.9 0.0
23/04:00am 21.4 24.6 20.4 94 0.6 N 4 4 2 2 1009.3 1008.8 0.0
23/03:30am 21.2 24.8 19.8 92 0.9 CALM 0 4 0 2 1009.4 1008.9 0.0
23/03:00am 21.6 24.8 20.4 93 0.8 WNW 4 6 2 3 1009.5 1009.0 0.0
23/02:30am 21.8 25.3 20.3 91 1.0 WNW 2 4 1 2 1009.7 1009.2 0.0
23/02:00am 21.9 25.0 20.2 90 1.1 WNW 4 4 2 2 1010.0 1009.5 0.0
23/01:30am 22.2 25.4 20.5 90 1.1 WNW 4 6 2 3 1010.1 1009.6 0.0
23/01:00am 22.3 25.5 20.4 89 1.2 WNW 4 6 2 3 1010.1 1009.6 0.0
23/12:30am 22.5 25.3 20.4 88 1.4 WNW 6 7 3 4 1010.3 1009.8 0.0
23/12:00am 22.6 25.4 20.5 88 1.4 NW 6 9 3 5 1010.6 1010.1 0.0
 
Date/Time
CST
Temp
°C
App
Temp
°C
Dew
Point
°C
Rel
Hum
%
Delta-T
°C
Wind Press
QNH
hPa
Press
MSL
hPa
Rain since
9am
mm
Dir  Spd
km/h
Gust
km/h
Spd
kts
Gust
kts
22/11:30pm 22.8 25.4 20.1 85 1.7 WNW 6 6 3 3 1010.6 1010.1 0.0
22/11:00pm 23.7 26.5 20.4 82 2.2 WNW 6 7 3 4 1010.5 1010.0 0.0
22/10:30pm 24.0 26.8 20.5 81 2.3 WNW 6 9 3 5 1010.5 1010.0 0.0
22/10:00pm 24.3 26.6 20.6 80 2.4 WNW 9 13 5 7 1010.3 1009.8 0.0
22/09:30pm 24.6 26.8 20.3 77 2.8 WNW 9 13 5 7 1010.0 1009.5 0.0
22/09:00pm 25.1 27.4 19.9 73 3.4 WNW 7 11 4 6 1009.6 1009.1 0.0
22/08:30pm 25.7 27.0 18.4 64 4.7 WNW 9 13 5 7 1009.3 1008.8 0.0
22/08:00pm 26.4 27.0 17.7 58 5.5 W 11 17 6 9 1008.8 1008.3 0.0
22/07:30pm 27.1 27.7 17.6 56 6.0 W 11 19 6 10 1008.3 1007.8 0.0
22/07:00pm 28.0 28.1 16.6 50 7.1 WNW 11 20 6 11 1007.8 1007.3 0.0
22/06:30pm 29.1 28.6 17.0 48 7.6 WNW 15 26 8 14 1007.4 1006.9 0.0
22/06:00pm 30.4 29.5 16.8 44 8.6 NW 17 26 9 14 1006.9 1006.3 0.0
22/05:30pm 31.5 30.8 17.4 43 9.0 WNW 17 24 9 13 1006.6 1006.0 0.0
22/05:00pm 32.6 32.2 17.2 39 9.9 WNW 15 24 8 13 1006.3 1005.7 0.0
22/04:30pm 33.0 32.5 15.9 35 10.8 WNW 13 20 7 11 1006.1 1005.5 0.0
22/04:00pm 33.7 32.7 14.7 32 11.8 WNW 13 19 7 10 1006.2 1005.6 0.0
22/03:30pm 33.4 32.4 14.5 32 11.7 WNW 13 26 7 14 1006.4 1005.8 0.0
22/03:00pm 33.2 33.0 14.8 33 11.4 W 9 22 5 12 1006.7 1006.1 0.0
22/02:30pm 32.7 32.2 14.8 34 11.1 W 11 20 6 11 1007.1 1006.5 0.0
22/02:00pm 31.8 31.7 14.9 36 10.4 N 9 24 5 13 1007.7 1007.2 0.0
22/01:30pm 31.8 31.8 15.3 37 10.3 NW 9 22 5 12 1008.2 1007.7 0.0
22/01:00pm 32.1 33.1 16.8 40 9.7 N 7 15 4 8 1008.8 1008.3 0.0
22/12:30pm 31.1 31.4 17.0 42 9.0 WNW 11 17 6 9 1009.4 1008.9 0.0
22/12:00pm 29.9 30.6 18.0 48 7.6 NW 11 19 6 10 1010.0 1009.5 0.0
22/11:30am 30.2 31.2 18.6 49 7.5 NW 11 19 6 10 1010.6 1010.1 0.0
22/11:00am 29.3 30.4 18.1 51 7.2 NNW 9 17 5 9 1011.2 1010.7 0.0
22/10:30am 28.5 30.1 20.0 60 5.6 NNW 11 17 6 9 1011.4 1010.9 0.0
22/10:00am 26.9 28.7 19.5 64 4.8 NNW 9 17 5 9 1011.6 1011.1 0.0
22/09:30am 26.6 28.3 20.2 68 4.2 N 11 19 6 10 1011.5 1011.0 0.0
22/09:00am 25.7 27.9 20.5 73 3.4 N 9 13 5 7 1011.5 1011.0 0.0
22/08:30am 24.3 27.0 20.6 80 2.4 N 7 11 4 6 1011.4 1010.9 0.0
22/08:00am 23.0 25.6 20.5 86 1.6 N 7 9 4 5 1011.2 1010.7 0.0
22/07:30am 21.4 24.9 20.4 94 0.6 WNW 2 6 1 3 1011.0 1010.5 0.0
22/07:00am 21.0 24.7 20.0 94 0.6 CALM 0 0 0 0 1010.6 1010.1 0.0
22/06:30am 20.6 24.0 19.4 93 0.8 CALM 0 0 0 0 1010.1 1009.6 0.0
22/06:00am 20.4 23.7 19.2 93 0.8 CALM 0 0 0 0 1009.8 1009.3 0.0
22/05:30am 20.4 23.7 19.2 93 0.8 CALM 0 0 0 0 1009.7 1009.2 0.0
22/05:00am 20.3 23.6 19.0 92 0.8 CALM 0 0 0 0 1009.4 1008.9 0.0
22/04:30am 20.4 23.6 18.9 91 0.9 CALM 0 0 0 0 1009.4 1008.9 0.0
22/04:00am 20.9 24.4 19.6 92 0.8 CALM 0 0 0 0 1009.2 1008.7 0.0
22/03:30am 21.4 25.1 20.0 92 0.9 CALM 0 0 0 0 1009.4 1008.9 0.0
22/03:00am 21.6 25.2 19.7 89 1.2 CALM 0 0 0 0 1009.6 1009.1 0.0
22/02:30am 21.9 25.0 19.6 87 1.5 WNW 2 2 1 1 1009.7 1009.2 0.0
22/02:00am 22.1 24.8 19.5 85 1.7 WNW 4 4 2 2 1009.7 1009.2 0.0
22/01:30am 22.6 26.1 19.6 83 1.9 CALM 0 0 0 0 1010.0 1009.5 0.0
22/01:00am 23.1 26.4 19.9 82 2.1 WNW 2 2 1 1 1010.2 1009.7 0.0
22/12:30am 23.4 26.4 20.0 81 2.2 WNW 4 6 2 3 1010.3 1009.8 0.0
22/12:00am 23.7 26.5 19.6 78 2.6 W 4 4 2 2 1010.6 1010.1 0.0
 
Date/Time
CST
Temp
°C
App
Temp
°C
Dew
Point
°C
Rel
Hum
%
Delta-T
°C
Wind Press
QNH
hPa
Press
MSL
hPa
Rain since
9am
mm
Dir  Spd
km/h
Gust
km/h
Spd
kts
Gust
kts
21/11:30pm 24.2 27.4 19.7 76 2.9 W 2 4 1 2 1010.9 1010.4 0.0
21/11:00pm 24.9 27.8 19.9 74 3.2 W 4 6 2 3 1011.0 1010.5 0.0
21/10:30pm 25.3 27.9 20.1 73 3.4 W 6 9 3 5 1011.0 1010.5 0.0
21/10:00pm 25.4 27.8 20.0 72 3.5 W 7 17 4 9 1011.0 1010.5 0.0
21/09:30pm 25.6 27.9 19.9 70 3.7 W 7 13 4 7 1010.8 1010.3 0.0
21/09:00pm 26.0 28.0 19.9 69 4.0 W 9 13 5 7 1010.4 1009.9 0.0
21/08:30pm 26.7 28.9 19.6 65 4.6 WSW 7 13 4 7 1010.1 1009.6 0.0
21/08:00pm 27.1 29.0 18.9 61 5.3 W 7 11 4 6 1009.7 1009.2 0.0
21/07:30pm 27.8 29.6 18.8 58 5.8 WNW 7 13 4 7 1009.3 1008.8 0.0
21/07:00pm 28.7 30.0 18.5 54 6.6 W 9 17 5 9 1008.9 1008.4 0.0
21/06:30pm 31.2 30.6 11.6 30 11.5 WNW 6 6 3 3 1008.2 1007.7 0.0
21/06:00pm 31.7 30.9 11.0 28 12.1 NW 6 7 3 4 1007.9 1007.4 0.0
21/05:30pm 32.4 32.0 11.0 27 12.5 NNW 4 7 2 4 1007.7 1007.2 0.0
21/05:00pm 32.5 31.6 10.5 26 12.7 NE 6 11 3 6 1007.7 1007.2 0.0
21/04:30pm 33.1 32.1 11.0 26 12.9 NE 7 9 4 5 1007.7 1007.2 0.0

Latest Capital City Observations: Canberra | Sydney | Melbourne | Brisbane | Adelaide | Perth | Hobart | Darwin

Other Formats:

Comma delimited format used in spreadsheet applications
http://www.bom.gov.au/fwo/IDD60901/IDD60901.94125.axf

JavaScript Object Notation format (JSON) in row-major order
http://www.bom.gov.au/fwo/IDD60901/IDD60901.94125.json